createdAt,value
2023-05-06T00:01:46.745Z,12.61
2023-05-06T00:04:13.468Z,12.60
2023-05-06T00:06:41.926Z,12.61
2023-05-06T00:09:08.584Z,12.59
2023-05-06T00:11:35.287Z,12.57
2023-05-06T00:14:02.069Z,12.56
2023-05-06T00:16:28.921Z,12.57
2023-05-06T00:18:55.968Z,12.57
2023-05-06T00:21:22.692Z,12.55
2023-05-06T00:23:49.461Z,12.63
2023-05-06T00:26:16.231Z,12.63
2023-05-06T00:28:42.853Z,12.68
2023-05-06T00:31:09.773Z,12.69
2023-05-06T00:33:36.690Z,12.70
2023-05-06T00:36:03.502Z,12.73
2023-05-06T00:38:30.132Z,12.79
2023-05-06T00:40:56.878Z,12.76
2023-05-06T00:43:23.728Z,12.77
2023-05-06T00:45:51.394Z,12.74
2023-05-06T00:48:18.615Z,12.73
2023-05-06T00:50:45.761Z,12.70
2023-05-06T00:53:12.693Z,12.65
2023-05-06T00:55:40.179Z,12.63
2023-05-06T00:58:07.578Z,12.49
2023-05-06T01:00:34.826Z,12.44
2023-05-06T01:03:02.217Z,12.29
2023-05-06T01:05:33.469Z,12.36
2023-05-06T01:08:09.453Z,12.41
2023-05-06T01:10:55.554Z,12.35
2023-05-06T01:13:34.545Z,12.33
2023-05-06T01:16:02.255Z,12.27
2023-05-06T01:18:32.604Z,12.26
2023-05-06T01:21:00.337Z,12.18
2023-05-06T01:23:27.073Z,12.08
2023-05-06T01:25:53.742Z,12.02
2023-05-06T01:28:21.056Z,12.04
2023-05-06T01:31:03.790Z,12.08
2023-05-06T01:33:57.249Z,12.05
2023-05-06T01:37:12.516Z,12.13
2023-05-06T01:39:41.644Z,12.13
2023-05-06T01:42:10.825Z,12.12
2023-05-06T01:44:39.469Z,12.18
2023-05-06T01:47:08.838Z,12.19
2023-05-06T01:49:35.958Z,12.22
2023-05-06T01:52:02.912Z,12.22
2023-05-06T01:54:29.725Z,12.28
2023-05-06T01:56:56.325Z,12.29
2023-05-06T01:59:23.234Z,12.33
2023-05-06T02:01:51.770Z,12.30
2023-05-06T02:04:18.507Z,12.30
2023-05-06T02:06:45.518Z,12.30
2023-05-06T02:09:14.977Z,12.26
2023-05-06T02:11:46.347Z,12.25
2023-05-06T02:14:13.536Z,12.21
2023-05-06T02:16:40.340Z,12.16
2023-05-06T02:19:07.144Z,12.13
2023-05-06T02:21:34.650Z,12.11
2023-05-06T02:24:01.351Z,12.04
2023-05-06T02:26:28.004Z,11.93
2023-05-06T02:28:54.653Z,11.88
2023-05-06T02:31:21.564Z,11.81
2023-05-06T02:33:48.273Z,11.81
2023-05-06T02:36:14.949Z,11.81
2023-05-06T02:38:41.575Z,11.79
2023-05-06T02:41:08.250Z,11.80
2023-05-06T02:43:34.910Z,11.80
2023-05-06T02:46:01.679Z,11.77
2023-05-06T02:48:28.394Z,11.79
2023-05-06T02:50:55.042Z,11.77
2023-05-06T02:53:22.084Z,11.78
2023-05-06T02:55:48.748Z,11.77
2023-05-06T02:58:15.378Z,11.77
2023-05-06T03:00:42.086Z,11.74
2023-05-06T03:03:09.960Z,11.79
2023-05-06T03:05:36.747Z,11.80
2023-05-06T03:08:03.513Z,11.83
2023-05-06T03:10:31.156Z,11.80
2023-05-06T03:12:58.878Z,11.79
2023-05-06T03:15:27.271Z,11.83
2023-05-06T03:17:54.186Z,11.87
2023-05-06T03:20:21.775Z,11.80
2023-05-06T03:22:53.512Z,11.80
2023-05-06T03:25:21.864Z,11.84
2023-05-06T03:27:48.954Z,11.84
2023-05-06T03:30:19.591Z,11.86
2023-05-06T03:32:48.884Z,11.85
2023-05-06T03:35:21.769Z,11.83
2023-05-06T03:37:52.724Z,11.81
2023-05-06T03:40:21.328Z,11.77
2023-05-06T03:42:48.615Z,11.76
2023-05-06T03:45:15.673Z,11.75
2023-05-06T03:47:43.738Z,11.67
2023-05-06T03:50:11.594Z,11.66
2023-05-06T03:52:39.519Z,11.63
2023-05-06T03:55:07.021Z,11.55
2023-05-06T03:57:35.407Z,11.51
2023-05-06T04:00:02.606Z,11.48
2023-05-06T04:02:35.250Z,11.41
2023-05-06T04:05:03.864Z,11.44
2023-05-06T04:07:31.118Z,11.43
2023-05-06T04:09:57.839Z,11.42
2023-05-06T04:12:25.013Z,11.40
2023-05-06T04:14:52.357Z,11.41
2023-05-06T04:17:19.337Z,11.43
2023-05-06T04:19:47.463Z,11.46
2023-05-06T04:22:14.162Z,11.45
2023-05-06T04:24:45.669Z,11.39
2023-05-06T04:27:13.467Z,11.44
2023-05-06T04:29:43.133Z,11.46
2023-05-06T04:32:11.841Z,11.49
2023-05-06T04:34:38.684Z,11.50
2023-05-06T04:37:07.202Z,11.48
2023-05-06T04:39:48.824Z,11.50
2023-05-06T04:42:18.815Z,11.55
2023-05-06T04:44:54.996Z,11.58
2023-05-06T04:47:27.072Z,11.66
2023-05-06T04:49:55.028Z,11.66
2023-05-06T04:52:23.138Z,11.69
2023-05-06T04:54:49.991Z,11.71
2023-05-06T04:57:16.745Z,11.75
2023-05-06T04:59:44.896Z,11.76
2023-05-06T05:02:11.977Z,11.76
2023-05-06T05:04:41.402Z,11.78
2023-05-06T05:07:08.898Z,11.82
2023-05-06T05:09:36.099Z,11.88
2023-05-06T05:12:03.490Z,11.95
2023-05-06T05:14:33.749Z,12.02
2023-05-06T05:17:01.098Z,12.08
2023-05-06T05:19:28.509Z,12.20
2023-05-06T05:21:56.625Z,12.29
2023-05-06T05:24:25.346Z,12.32
2023-05-06T05:26:51.972Z,12.34
2023-05-06T05:29:18.772Z,12.34
2023-05-06T05:31:47.427Z,12.33
2023-05-06T05:34:14.284Z,12.44
2023-05-06T05:36:41.199Z,12.44
2023-05-06T05:39:10.817Z,12.59
2023-05-06T05:41:42.983Z,12.79
2023-05-06T05:44:10.285Z,12.87
2023-05-06T05:46:39.353Z,12.97
2023-05-06T05:49:06.838Z,13.17
2023-05-06T05:51:34.257Z,13.40
2023-05-06T05:54:04.120Z,13.58
2023-05-06T05:56:31.321Z,13.67
2023-05-06T05:58:58.463Z,13.77
2023-05-06T06:01:25.776Z,13.84
2023-05-06T06:03:54.471Z,13.72
2023-05-06T06:06:22.327Z,13.66
2023-05-06T06:08:49.663Z,13.55
2023-05-06T06:11:17.059Z,13.45
2023-05-06T06:13:44.569Z,13.35
2023-05-06T06:16:12.794Z,13.60
2023-05-06T06:18:39.631Z,13.72
2023-05-06T06:21:06.607Z,13.60
2023-05-06T06:23:34.909Z,13.49
2023-05-06T06:26:03.845Z,13.42
2023-05-06T06:28:32.674Z,13.48
2023-05-06T06:30:59.582Z,13.48
2023-05-06T06:33:26.232Z,13.52
2023-05-06T06:35:52.934Z,13.93
2023-05-06T06:38:19.608Z,14.45
2023-05-06T06:40:46.245Z,14.95
2023-05-06T06:43:12.962Z,15.17
2023-05-06T06:45:51.725Z,15.09
2023-05-06T06:48:19.593Z,15.25
2023-05-06T06:50:46.565Z,15.36
2023-05-06T06:53:13.217Z,15.38
2023-05-06T06:55:43.241Z,15.29
2023-05-06T06:58:09.904Z,14.98
2023-05-06T07:00:36.611Z,14.83
2023-05-06T07:03:03.422Z,14.68
2023-05-06T07:05:30.128Z,14.59
2023-05-06T07:07:57.206Z,14.67
2023-05-06T07:10:23.972Z,14.73
2023-05-06T07:12:50.646Z,14.74
2023-05-06T07:15:17.336Z,15.02
2023-05-06T07:17:43.991Z,15.52
2023-05-06T07:20:11.340Z,15.99
2023-05-06T07:22:37.961Z,16.41
2023-05-06T07:25:04.927Z,16.79
2023-05-06T07:27:31.658Z,16.72
2023-05-06T07:29:58.363Z,16.52
2023-05-06T07:32:25.026Z,16.09
2023-05-06T07:34:51.767Z,15.90
2023-05-06T07:37:18.427Z,16.11
2023-05-06T07:39:45.197Z,16.06
2023-05-06T07:42:13.211Z,16.30
2023-05-06T07:44:40.344Z,16.72
2023-05-06T07:47:07.210Z,16.94
2023-05-06T07:49:35.232Z,17.16
2023-05-06T07:52:03.501Z,17.56
2023-05-06T07:54:31.818Z,17.55
2023-05-06T07:56:58.717Z,17.40
2023-05-06T07:59:25.449Z,17.28
2023-05-06T08:01:52.239Z,17.64
2023-05-06T08:04:19.029Z,17.67
2023-05-06T08:07:13.917Z,17.70
2023-05-06T08:09:40.610Z,18.19
2023-05-06T08:12:07.435Z,18.21
2023-05-06T08:14:34.148Z,18.04
2023-05-06T08:17:00.913Z,17.89
2023-05-06T08:19:27.645Z,18.00
2023-05-06T08:21:54.437Z,17.95
2023-05-06T08:24:21.117Z,17.99
2023-05-06T08:26:47.725Z,18.17
2023-05-06T08:29:14.449Z,18.22
2023-05-06T08:31:41.199Z,18.20
2023-05-06T08:34:07.923Z,18.53
2023-05-06T08:36:34.561Z,19.23
2023-05-06T08:39:01.299Z,19.02
2023-05-06T08:41:30.463Z,18.64
2023-05-06T08:43:58.782Z,18.97
2023-05-06T08:46:27.429Z,19.26
2023-05-06T08:48:54.108Z,18.86
2023-05-06T08:51:27.839Z,18.38
2023-05-06T08:53:55.975Z,17.94
2023-05-06T08:56:24.336Z,17.96
2023-05-06T08:58:52.135Z,18.38
2023-05-06T09:01:18.843Z,18.78
2023-05-06T09:03:48.048Z,19.28
2023-05-06T09:06:14.724Z,19.46
2023-05-06T09:08:41.377Z,19.75
2023-05-06T09:11:29.555Z,20.19
2023-05-06T09:14:16.543Z,20.43
2023-05-06T09:16:50.888Z,20.39
2023-05-06T09:19:19.755Z,20.42
2023-05-06T09:21:49.701Z,20.50
2023-05-06T09:24:17.162Z,20.28
2023-05-06T09:26:46.430Z,19.41
2023-05-06T09:29:13.421Z,19.00
2023-05-06T09:31:43.036Z,18.56
2023-05-06T09:34:10.644Z,18.79
2023-05-06T09:36:37.763Z,19.71
2023-05-06T09:39:05.149Z,20.40
2023-05-06T09:41:32.211Z,20.57
2023-05-06T09:43:59.418Z,20.70
2023-05-06T09:46:29.895Z,20.74
2023-05-06T09:48:58.282Z,21.18
2023-05-06T09:51:27.858Z,21.20
2023-05-06T09:53:57.824Z,21.22
2023-05-06T09:56:25.119Z,20.98
2023-05-06T09:58:54.407Z,20.84
2023-05-06T10:01:32.799Z,21.50
2023-05-06T10:04:08.131Z,21.35
2023-05-06T10:06:36.949Z,21.10
2023-05-06T10:09:06.252Z,21.26
2023-05-06T10:11:33.315Z,20.95
2023-05-06T10:14:01.573Z,20.78
2023-05-06T10:16:29.249Z,20.84
2023-05-06T10:18:56.747Z,21.37
2023-05-06T10:21:26.362Z,21.72
2023-05-06T10:24:09.545Z,22.09
2023-05-06T10:26:37.563Z,22.19
2023-05-06T10:29:09.904Z,22.26
2023-05-06T10:31:44.293Z,22.06
2023-05-06T10:34:11.021Z,22.48
2023-05-06T10:36:40.614Z,22.44
2023-05-06T10:39:10.285Z,22.50
2023-05-06T10:41:37.512Z,22.87
2023-05-06T10:44:04.237Z,22.93
2023-05-06T10:46:31.116Z,23.14
2023-05-06T10:49:08.499Z,22.76
2023-05-06T10:51:36.933Z,22.22
2023-05-06T10:54:04.688Z,22.08
2023-05-06T10:56:38.482Z,22.63
2023-05-06T10:59:08.250Z,22.75
2023-05-06T11:01:44.824Z,23.16
2023-05-06T11:04:18.662Z,22.81
2023-05-06T11:06:48.238Z,22.96
2023-05-06T11:09:22.861Z,22.96
2023-05-06T11:12:06.567Z,23.01
2023-05-06T11:14:38.565Z,23.65
2023-05-06T11:17:07.411Z,23.68
2023-05-06T11:19:38.861Z,23.01
2023-05-06T11:22:07.090Z,23.57
2023-05-06T11:24:42.210Z,23.78
2023-05-06T11:27:10.679Z,23.85
2023-05-06T11:29:37.690Z,23.81
2023-05-06T11:32:07.264Z,24.13
2023-05-06T11:34:35.471Z,24.11
2023-05-06T11:37:04.427Z,24.14
2023-05-06T11:39:39.954Z,24.16
2023-05-06T11:42:07.927Z,24.32
2023-05-06T11:44:36.982Z,24.03
2023-05-06T11:47:05.983Z,23.55
2023-05-06T11:49:40.836Z,23.42
2023-05-06T11:52:12.807Z,23.58
2023-05-06T11:54:41.959Z,23.90
2023-05-06T11:57:09.409Z,24.46
2023-05-06T11:59:38.085Z,24.42
2023-05-06T12:02:07.390Z,24.45
2023-05-06T12:04:45.441Z,24.74
2023-05-06T12:07:13.895Z,25.25
2023-05-06T12:09:49.991Z,25.30
2023-05-06T12:12:20.088Z,24.57
2023-05-06T12:14:49.334Z,24.00
2023-05-06T12:17:16.745Z,23.63
2023-05-06T12:19:43.480Z,23.52
2023-05-06T12:22:21.747Z,23.29
2023-05-06T12:24:49.084Z,23.39
2023-05-06T12:27:29.495Z,23.20
2023-05-06T12:29:56.687Z,23.50
2023-05-06T12:32:23.464Z,23.75
2023-05-06T12:34:50.287Z,24.00
2023-05-06T12:37:29.857Z,24.00
2023-05-06T12:40:08.219Z,23.64
2023-05-06T12:42:35.029Z,23.25
2023-05-06T12:45:13.625Z,23.39
2023-05-06T12:47:40.436Z,23.76
2023-05-06T12:50:07.426Z,23.70
2023-05-06T12:52:34.076Z,23.40
2023-05-06T12:55:01.829Z,22.93
2023-05-06T12:57:28.446Z,22.64
2023-05-06T12:59:56.398Z,22.73
2023-05-06T13:02:23.267Z,23.37
2023-05-06T13:04:50.077Z,23.50
2023-05-06T13:07:16.764Z,23.48
2023-05-06T13:09:44.604Z,22.82
2023-05-06T13:12:11.476Z,22.62
2023-05-06T13:14:40.162Z,22.74
2023-05-06T13:17:07.985Z,22.97
2023-05-06T13:19:35.191Z,23.00
2023-05-06T13:22:02.126Z,23.29
2023-05-06T13:24:29.685Z,23.21
2023-05-06T13:26:57.307Z,23.02
2023-05-06T13:29:24.624Z,22.95
2023-05-06T13:31:51.761Z,22.75
2023-05-06T13:34:18.703Z,22.64
2023-05-06T13:36:46.814Z,22.78
2023-05-06T13:39:13.889Z,22.94
2023-05-06T13:41:40.707Z,22.95
2023-05-06T13:44:07.476Z,22.88
2023-05-06T13:46:34.370Z,22.85
2023-05-06T13:49:01.049Z,22.85
2023-05-06T13:51:29.333Z,23.03
2023-05-06T13:53:56.404Z,23.31
2023-05-06T13:56:23.114Z,23.20
2023-05-06T13:58:49.908Z,23.04
2023-05-06T14:01:16.594Z,23.12
2023-05-06T14:03:43.312Z,22.35
2023-05-06T14:06:09.976Z,21.99
2023-05-06T14:08:36.634Z,22.07
2023-05-06T14:11:03.364Z,22.21
2023-05-06T14:13:32.070Z,22.47
2023-05-06T14:15:59.986Z,22.69
2023-05-06T14:18:27.521Z,22.84
2023-05-06T14:20:54.688Z,22.95
2023-05-06T14:23:21.358Z,22.90
2023-05-06T14:25:48.685Z,22.78
2023-05-06T14:28:15.859Z,22.47
2023-05-06T14:30:42.712Z,22.11
2023-05-06T14:33:09.916Z,21.91
2023-05-06T14:35:41.733Z,21.85
2023-05-06T14:38:09.132Z,21.69
2023-05-06T14:40:37.075Z,21.59
2023-05-06T14:43:04.178Z,21.53
2023-05-06T14:45:31.115Z,21.81
2023-05-06T14:47:58.095Z,21.90
2023-05-06T14:50:24.865Z,21.96
2023-05-06T14:52:51.601Z,22.09
2023-05-06T14:55:18.633Z,21.91
2023-05-06T14:57:45.269Z,21.80
2023-05-06T15:00:14.832Z,21.72
2023-05-06T15:02:42.103Z,21.58
2023-05-06T15:05:10.290Z,21.59
2023-05-06T15:07:37.149Z,21.43
2023-05-06T15:10:04.287Z,21.35
2023-05-06T15:12:31.085Z,21.17
2023-05-06T15:14:57.876Z,21.12
2023-05-06T15:17:24.971Z,20.84
2023-05-06T15:19:51.790Z,20.80
2023-05-06T15:22:18.489Z,21.03
2023-05-06T15:24:45.479Z,21.33
2023-05-06T15:27:12.211Z,21.37
2023-05-06T15:29:39.461Z,21.31
2023-05-06T15:32:06.307Z,21.20
2023-05-06T15:34:33.096Z,21.21
2023-05-06T15:37:01.903Z,21.15
2023-05-06T15:39:28.765Z,21.13
2023-05-06T15:41:58.214Z,21.13
2023-05-06T15:46:53.303Z,20.98
2023-05-06T15:49:47.273Z,20.80
2023-05-06T15:52:06.584Z,20.79
2023-05-06T15:54:37.052Z,20.68
2023-05-06T15:57:07.398Z,20.47
2023-05-06T15:59:34.235Z,20.50
2023-05-06T16:02:26.080Z,20.55
2023-05-06T16:04:47.822Z,20.64
2023-05-06T16:07:15.355Z,20.70
2023-05-06T16:09:42.840Z,20.64
2023-05-06T16:12:10.123Z,20.65
2023-05-06T16:14:37.036Z,20.58
2023-05-06T16:17:03.747Z,20.60
2023-05-06T16:19:32.156Z,20.61
2023-05-06T16:21:58.784Z,20.60
2023-05-06T16:24:25.457Z,20.44
2023-05-06T16:26:52.201Z,20.31
2023-05-06T16:29:20.696Z,20.28
2023-05-06T16:31:48.653Z,20.26
2023-05-06T16:34:15.436Z,20.11
2023-05-06T16:36:42.083Z,19.60
2023-05-06T16:39:08.768Z,19.50
2023-05-06T16:41:35.490Z,19.35
2023-05-06T16:44:02.143Z,19.21
2023-05-06T16:46:29.026Z,19.09
2023-05-06T16:48:56.085Z,19.07
2023-05-06T16:51:22.792Z,19.02
2023-05-06T16:53:49.446Z,18.97
2023-05-06T16:56:16.176Z,18.92
2023-05-06T16:58:42.956Z,18.91
2023-05-06T17:01:09.750Z,18.91
2023-05-06T17:03:40.365Z,18.89
2023-05-06T17:06:07.897Z,18.85
2023-05-06T17:08:36.412Z,18.74
2023-05-06T17:11:07.136Z,18.85
2023-05-06T17:13:34.339Z,18.79
2023-05-06T17:16:01.177Z,18.69
2023-05-06T17:18:27.881Z,18.73
2023-05-06T17:20:56.982Z,18.74
2023-05-06T17:23:24.669Z,18.75
2023-05-06T17:25:51.855Z,18.77
2023-05-06T17:31:05.264Z,18.48
2023-05-06T17:33:31.964Z,18.33
2023-05-06T17:35:58.744Z,18.28
2023-05-06T17:38:25.708Z,18.24
2023-05-06T17:40:52.524Z,18.13
2023-05-06T17:43:19.326Z,18.06
2023-05-06T17:45:46.146Z,17.98
2023-05-06T17:48:13.007Z,17.93
2023-05-06T17:50:39.723Z,17.91
2023-05-06T17:53:06.437Z,17.88
2023-05-06T17:55:33.083Z,17.78
2023-05-06T17:57:59.857Z,17.78
2023-05-06T18:00:26.897Z,17.77
2023-05-06T18:02:53.755Z,17.70
2023-05-06T18:05:21.777Z,17.64
2023-05-06T18:07:48.511Z,17.57
2023-05-06T18:10:15.147Z,17.43
2023-05-06T18:12:42.002Z,17.39
2023-05-06T18:15:09.329Z,17.28
2023-05-06T18:17:36.218Z,17.27
2023-05-06T18:20:03.437Z,17.30
2023-05-06T18:22:30.114Z,17.24
2023-05-06T18:24:56.778Z,17.22
2023-05-06T18:27:23.811Z,17.08
2023-05-06T18:29:50.474Z,16.99
2023-05-06T18:32:18.123Z,16.92
2023-05-06T18:34:44.877Z,16.90
2023-05-06T18:37:11.580Z,16.87
2023-05-06T18:39:42.650Z,16.86
2023-05-06T18:42:09.542Z,16.76
2023-05-06T18:44:36.225Z,16.70
2023-05-06T18:47:02.960Z,16.73
2023-05-06T18:49:31.163Z,16.64
2023-05-06T18:51:58.013Z,16.66
2023-05-06T18:54:24.718Z,16.65
2023-05-06T18:56:54.979Z,16.56
2023-05-06T18:59:22.073Z,16.60
2023-05-06T19:01:48.751Z,16.59
2023-05-06T19:04:16.465Z,16.50
2023-05-06T19:06:43.360Z,16.48
2023-05-06T19:09:11.337Z,16.45
2023-05-06T19:11:38.089Z,16.43
2023-05-06T19:14:04.716Z,16.34
2023-05-06T19:16:31.412Z,16.34
2023-05-06T19:18:58.074Z,16.29
2023-05-06T19:21:24.777Z,16.29
2023-05-06T19:23:51.636Z,16.26
2023-05-06T19:26:18.324Z,16.27
2023-05-06T19:28:45.016Z,16.28
2023-05-06T19:31:11.880Z,16.25
2023-05-06T19:33:39.268Z,16.27
2023-05-06T19:36:06.711Z,16.16
2023-05-06T19:38:33.952Z,16.21
2023-05-06T19:41:01.174Z,16.17
2023-05-06T19:43:27.935Z,16.03
2023-05-06T19:45:54.626Z,15.87
2023-05-06T19:48:23.592Z,15.76
2023-05-06T19:50:51.036Z,15.70
2023-05-06T19:53:17.976Z,15.55
2023-05-06T19:55:44.670Z,15.55
2023-05-06T19:58:11.650Z,15.52
2023-05-06T20:00:38.694Z,15.49
2023-05-06T20:03:05.732Z,15.45
2023-05-06T20:05:32.581Z,15.35
2023-05-06T20:08:00.016Z,15.27
2023-05-06T20:10:27.468Z,15.22
2023-05-06T20:12:57.195Z,15.20
2023-05-06T20:15:24.404Z,15.20
2023-05-06T20:17:51.142Z,15.20
2023-05-06T20:20:19.141Z,15.23
2023-05-06T20:22:46.066Z,15.19
2023-05-06T20:25:17.526Z,15.09
2023-05-06T20:27:45.434Z,15.07
2023-05-06T20:30:12.412Z,15.02
2023-05-06T20:32:40.392Z,15.06
2023-05-06T20:35:07.786Z,15.08
2023-05-06T20:37:35.392Z,15.17
2023-05-06T20:40:04.745Z,15.23
2023-05-06T20:42:31.870Z,15.25
2023-05-06T20:44:59.306Z,15.27
2023-05-06T20:47:26.582Z,15.29
2023-05-06T20:49:53.530Z,15.28
2023-05-06T20:52:21.572Z,15.29
2023-05-06T20:54:48.878Z,15.33
2023-05-06T20:57:16.691Z,15.31
2023-05-06T20:59:43.851Z,15.20
2023-05-06T21:02:10.725Z,14.98
2023-05-06T21:04:37.551Z,14.79
2023-05-06T21:07:04.347Z,14.71
2023-05-06T21:09:31.079Z,14.72
2023-05-06T21:11:58.942Z,14.80
2023-05-06T21:14:26.609Z,14.83
2023-05-06T21:16:53.371Z,14.85
2023-05-06T21:19:20.045Z,14.89
2023-05-06T21:21:46.896Z,14.87
2023-05-06T21:24:13.735Z,14.75
2023-05-06T21:26:40.368Z,14.59
2023-05-06T21:29:06.981Z,14.49
2023-05-06T21:31:33.876Z,14.38
2023-05-06T21:34:00.667Z,14.26
2023-05-06T21:36:27.318Z,14.18
2023-05-06T21:39:13.999Z,14.13
2023-05-06T21:41:40.931Z,14.06
2023-05-06T21:44:09.239Z,14.01
2023-05-06T21:46:37.624Z,13.96
2023-05-06T21:49:04.783Z,13.92
2023-05-06T21:51:33.276Z,13.84
2023-05-06T21:53:59.933Z,13.83
2023-05-06T21:56:27.011Z,13.86
2023-05-06T21:58:55.821Z,13.81
2023-05-06T22:01:26.055Z,13.80
2023-05-06T22:03:53.882Z,13.82
2023-05-06T22:06:21.114Z,13.83
2023-05-06T22:08:47.791Z,13.75
2023-05-06T22:11:14.611Z,13.72
2023-05-06T22:13:41.277Z,13.75
2023-05-06T22:16:08.207Z,13.81
2023-05-06T22:18:35.989Z,13.85
2023-05-06T22:21:03.356Z,13.86
2023-05-06T22:23:30.121Z,13.84
2023-05-06T22:25:58.505Z,13.73
2023-05-06T22:28:26.054Z,13.57
2023-05-06T22:30:52.699Z,13.45
2023-05-06T22:33:19.385Z,13.38
2023-05-06T22:35:46.052Z,13.33
2023-05-06T22:38:12.698Z,13.36
2023-05-06T22:40:39.333Z,13.38
2023-05-06T22:43:06.049Z,13.38
2023-05-06T22:45:32.740Z,13.33
2023-05-06T22:47:59.421Z,13.31
2023-05-06T22:50:26.107Z,13.28
2023-05-06T22:52:52.808Z,13.23
2023-05-06T22:55:19.537Z,13.23
2023-05-06T22:57:49.829Z,13.23
2023-05-06T23:00:17.492Z,13.25
2023-05-06T23:02:44.338Z,13.28
2023-05-06T23:05:12.524Z,13.25
2023-05-06T23:07:39.531Z,13.20
2023-05-06T23:10:06.788Z,13.18
2023-05-06T23:12:34.689Z,13.17
2023-05-06T23:15:01.732Z,13.05
2023-05-06T23:17:28.423Z,12.98
2023-05-06T23:19:55.118Z,12.90
2023-05-06T23:22:21.851Z,12.85
2023-05-06T23:24:48.506Z,12.85
2023-05-06T23:27:15.255Z,12.82
2023-05-06T23:29:41.902Z,12.76
2023-05-06T23:32:08.579Z,12.68
2023-05-06T23:34:35.204Z,12.67
2023-05-06T23:37:01.924Z,12.68
2023-05-06T23:39:28.570Z,12.67
2023-05-06T23:41:55.266Z,12.69
2023-05-06T23:44:22.538Z,12.73
2023-05-06T23:46:49.380Z,12.69
2023-05-06T23:49:16.035Z,12.67
2023-05-06T23:51:42.669Z,12.61
2023-05-06T23:54:09.605Z,12.51
2023-05-06T23:56:36.325Z,12.40
2023-05-06T23:59:03.036Z,12.33
